< < Back
Terminal Aerodrome Forecast


Current Version              Previous Versions:   1  2  3  4  5  6  7  8  9  

Terminal Aerodrome Forecast

418
FTUS42 KILM 271700
TAFILM
TAF
KILM 271721Z 2718/2818 21010KT P6SM SCT120
     FM271900 21012G17KT P6SM VCSH FEW040 SCT120
     FM280000 21012KT P6SM SCT200
     FM280400 22010KT P6SM SCT150
     FM281400 25012KT P6SM FEW040 SCT150=



Latest METAR

349
SAUS70 KWBC 282000 RRF
MTRILM
METAR KILM 281953Z 23008KT 8SM FEW029 SCT040 BKN048 32/25 A2977 RMK AO2
SLP081 T03170250


USA.gov is the U.S. government's official web portal to all federal, state and local government web resources and services.